Time;durP1;ratioP1;P1;durP2;ratioP2;P2;SDS_P1;SDS_P2;PMS_P1;PMS_P2;Temp;Humidity;BMP_temperature;BMP_pressure;BME280_temperature;BME280_humidity;BME280_pressure;Samples;Min_cycle;Max_cycle;Signal;HPM_P1;HPM_P2
2021/08/18 00:02:00;;;;;;;4.72;2.20;;;;;;;;;;5076835;28;20123;-82
2021/08/18 00:04:26;;;;;;;5.22;2.65;;;;;;;;;;5077729;28;20025;-82
2021/08/18 00:06:52;;;;;;;5.13;2.22;;;;;;;;;;5077763;28;20331;-82
2021/08/18 00:09:18;;;;;;;5.55;2.40;;;;;;;;;;5076619;28;20296;-82
2021/08/18 00:11:44;;;;;;;5.25;2.47;;;;;;;;;;5077589;28;20044;-82
2021/08/18 00:14:10;;;;;;;6.30;2.10;;;;;;;;;;5077784;28;20027;-82
2021/08/18 00:16:36;;;;;;;6.65;2.28;;;;;;;;;;5077571;28;20025;-80
2021/08/18 00:19:02;;;;;;;8.02;2.42;;;;;;;;;;5077609;28;20031;-81
2021/08/18 00:21:28;;;;;;;4.05;2.10;;;;;;;;;;5077337;28;20410;-82
2021/08/18 00:23:54;;;;;;;8.85;3.08;;;;;;;;;;5077639;28;20017;-81
2021/08/18 00:26:26;;;;;;;5.47;2.67;;;;;;;;;;5076811;28;20303;-81
2021/08/18 00:28:53;;;;;;;5.03;2.25;;;;;;;;;;5077556;28;20029;-81
2021/08/18 00:31:19;;;;;;;5.32;2.35;;;;;;;;;;5076562;28;20039;-81
2021/08/18 00:33:45;;;;;;;3.35;2.10;;;;;;;;;;5077368;28;20028;-82
2021/08/18 00:36:11;;;;;;;5.60;2.38;;;;;;;;;;5075730;28;20032;-81
2021/08/18 00:38:38;;;;;;;7.80;2.47;;;;;;;;;;5077202;28;20028;-81
2021/08/18 00:41:04;;;;;;;7.38;3.08;;;;;;;;;;5076105;28;20111;-81
2021/08/18 00:43:30;;;;;;;7.05;2.60;;;;;;;;;;5077474;28;20024;-82
2021/08/18 00:45:56;;;;;;;4.22;2.15;;;;;;;;;;5077320;28;20024;-81
2021/08/18 00:48:22;;;;;;;5.90;2.60;;;;;;;;;;5077228;28;20032;-82
2021/08/18 00:50:48;;;;;;;5.60;2.42;;;;;;;;;;5076034;28;20031;-82
2021/08/18 00:53:14;;;;;;;4.75;2.40;;;;;;;;;;5077053;28;20021;-82
2021/08/18 00:55:41;;;;;;;5.35;2.63;;;;;;;;;;5077167;28;20028;-82
2021/08/18 00:58:09;;;;;;;4.38;2.13;;;;;;;;;;5077270;28;20035;-83
2021/08/18 01:00:35;;;;;;;8.23;2.15;;;;;;;;;;5076805;28;20049;-81
2021/08/18 01:03:01;;;;;;;6.03;2.55;;;;;;;;;;5076949;28;20031;-81
2021/08/18 01:05:29;;;;;;;5.18;2.25;;;;;;;;;;5076262;28;20070;-81
2021/08/18 01:07:56;;;;;;;4.55;2.05;;;;;;;;;;5077033;28;20016;-81
2021/08/18 01:10:24;;;;;;;3.95;2.22;;;;;;;;;;5076949;28;20078;-81
2021/08/18 01:12:50;;;;;;;7.32;2.38;;;;;;;;;;5075872;28;20040;-82
2021/08/18 01:15:17;;;;;;;4.10;2.28;;;;;;;;;;5075771;28;20051;-81
2021/08/18 01:17:48;;;;;;;3.88;1.98;;;;;;;;;;5076822;28;20021;-82
2021/08/18 01:20:21;;;;;;;5.95;2.30;;;;;;;;;;5076669;28;20048;-82
2021/08/18 01:22:47;;;;;;;3.88;2.33;;;;;;;;;;5075946;28;20021;-82
2021/08/18 01:25:14;;;;;;;6.60;2.22;;;;;;;;;;5075950;28;20052;-82
2021/08/18 01:27:51;;;;;;;4.78;2.15;;;;;;;;;;5077034;28;20060;-82
2021/08/18 01:30:19;;;;;;;8.48;2.60;;;;;;;;;;5076921;28;20049;-82
2021/08/18 01:32:46;;;;;;;3.72;2.53;;;;;;;;;;5075770;28;20025;-82
2021/08/18 01:35:23;;;;;;;5.18;2.28;;;;;;;;;;5076757;28;20028;-82
2021/08/18 01:37:50;;;;;;;4.35;2.42;;;;;;;;;;5076655;28;20418;-82
2021/08/18 01:40:16;;;;;;;4.03;1.88;;;;;;;;;;5075527;28;20032;-82
2021/08/18 01:42:42;;;;;;;4.25;2.42;;;;;;;;;;5075895;28;20037;-82
2021/08/18 01:45:09;;;;;;;4.55;1.95;;;;;;;;;;5076581;28;20413;-82
2021/08/18 01:47:35;;;;;;;5.13;2.10;;;;;;;;;;5076068;28;20028;-82
2021/08/18 01:50:02;;;;;;;5.22;1.95;;;;;;;;;;5079008;28;20048;-82
2021/08/18 01:52:28;;;;;;;5.10;2.03;;;;;;;;;;5080180;28;20025;-82
2021/08/18 01:54:54;;;;;;;3.78;2.20;;;;;;;;;;5080186;28;20052;-82
2021/08/18 01:57:20;;;;;;;4.82;1.88;;;;;;;;;;5080739;28;20047;-82
2021/08/18 01:59:46;;;;;;;5.40;2.25;;;;;;;;;;5080010;28;20049;-83
2021/08/18 02:02:12;;;;;;;4.60;1.92;;;;;;;;;;5079938;28;20425;-83
2021/08/18 02:04:38;;;;;;;4.80;2.40;;;;;;;;;;5080132;28;20407;-83
2021/08/18 02:07:05;;;;;;;5.72;2.47;;;;;;;;;;5079956;28;20399;-82
2021/08/18 02:09:31;;;;;;;2.58;1.70;;;;;;;;;;5080269;28;20021;-82
2021/08/18 02:11:57;;;;;;;5.30;1.98;;;;;;;;;;5079009;28;20050;-82
2021/08/18 02:14:23;;;;;;;5.60;2.10;;;;;;;;;;5080009;28;20027;-80
2021/08/18 02:16:49;;;;;;;5.03;2.38;;;;;;;;;;5078898;28;20017;-81
2021/08/18 02:19:15;;;;;;;5.47;2.15;;;;;;;;;;5079823;28;20027;-81
2021/08/18 02:21:41;;;;;;;3.45;2.20;;;;;;;;;;5079657;28;20052;-82
2021/08/18 02:24:07;;;;;;;3.55;2.08;;;;;;;;;;5079653;28;20024;-81
2021/08/18 02:26:33;;;;;;;5.00;2.28;;;;;;;;;;5078588;28;20016;-81
2021/08/18 02:28:59;;;;;;;3.13;1.90;;;;;;;;;;5079805;28;20021;-81
2021/08/18 02:31:27;;;;;;;5.80;2.10;;;;;;;;;;5078756;28;20123;-81
2021/08/18 02:33:53;;;;;;;4.07;2.33;;;;;;;;;;5078762;28;20048;-81
2021/08/18 02:36:19;;;;;;;4.72;2.03;;;;;;;;;;5079552;28;20025;-81
2021/08/18 02:38:46;;;;;;;4.60;2.05;;;;;;;;;;5078474;28;20032;-82
2021/08/18 02:41:12;;;;;;;4.47;2.20;;;;;;;;;;5079351;28;20031;-81
2021/08/18 02:43:38;;;;;;;4.82;1.92;;;;;;;;;;5079430;28;20028;-81
2021/08/18 02:46:04;;;;;;;5.72;2.53;;;;;;;;;;5078262;28;20027;-81
2021/08/18 02:48:30;;;;;;;4.22;2.28;;;;;;;;;;5079523;28;20025;-82
2021/08/18 02:50:57;;;;;;;2.30;1.92;;;;;;;;;;5078367;28;20033;-82
2021/08/18 02:53:24;;;;;;;3.72;2.38;;;;;;;;;;5079083;28;20028;-81
2021/08/18 02:55:50;;;;;;;4.10;2.30;;;;;;;;;;5079083;28;20028;-82
2021/08/18 02:58:16;;;;;;;5.78;2.30;;;;;;;;;;5079230;28;20040;-82
2021/08/18 03:00:42;;;;;;;4.65;2.25;;;;;;;;;;5078436;28;20056;-84
2021/08/18 03:03:08;;;;;;;5.80;2.53;;;;;;;;;;5078219;28;20326;-83
2021/08/18 03:05:36;;;;;;;3.20;2.42;;;;;;;;;;5079237;28;20095;-83
2021/08/18 03:08:03;;;;;;;4.32;2.65;;;;;;;;;;5079200;28;20024;-83
2021/08/18 03:10:29;;;;;;;2.95;2.00;;;;;;;;;;5078984;28;20437;-83
2021/08/18 03:12:55;;;;;;;4.22;2.08;;;;;;;;;;5078927;28;20112;-83
2021/08/18 03:15:21;;;;;;;5.05;2.05;;;;;;;;;;5078700;28;20056;-83
2021/08/18 03:17:47;;;;;;;4.28;2.00;;;;;;;;;;5078924;28;20060;-83
2021/08/18 03:20:13;;;;;;;4.35;2.08;;;;;;;;;;5078682;28;20024;-82
2021/08/18 03:22:39;;;;;;;3.05;1.85;;;;;;;;;;5078621;28;20027;-83
2021/08/18 03:25:06;;;;;;;6.97;2.55;;;;;;;;;;5078990;28;20025;-83
2021/08/18 03:27:32;;;;;;;4.07;2.00;;;;;;;;;;5078890;28;20032;-83
2021/08/18 03:29:59;;;;;;;6.05;2.40;;;;;;;;;;5078553;28;20025;-82
2021/08/18 03:32:25;;;;;;;3.38;2.22;;;;;;;;;;5078492;28;20406;-83
2021/08/18 03:34:51;;;;;;;6.90;2.67;;;;;;;;;;5078499;28;20027;-83
2021/08/18 03:37:17;;;;;;;4.93;2.50;;;;;;;;;;5078311;28;20020;-81
2021/08/18 03:39:43;;;;;;;4.22;2.63;;;;;;;;;;5077414;28;20075;-81
2021/08/18 03:42:09;;;;;;;4.43;2.58;;;;;;;;;;5078190;28;20044;-81
2021/08/18 03:44:35;;;;;;;4.40;2.40;;;;;;;;;;5078265;28;20040;-81
2021/08/18 03:47:01;;;;;;;5.30;2.33;;;;;;;;;;5078171;28;20025;-82
2021/08/18 03:49:27;;;;;;;5.75;2.17;;;;;;;;;;5078109;28;20017;-82
2021/08/18 03:51:53;;;;;;;2.97;1.92;;;;;;;;;;5078028;28;20031;-81
2021/08/18 03:54:19;;;;;;;3.50;2.35;;;;;;;;;;5076971;28;20025;-82
2021/08/18 03:56:45;;;;;;;6.43;2.10;;;;;;;;;;5078001;28;20025;-82
2021/08/18 03:59:11;;;;;;;3.88;2.30;;;;;;;;;;5077669;28;20053;-82
2021/08/18 04:01:38;;;;;;;3.75;1.92;;;;;;;;;;5077829;28;20032;-82
2021/08/18 04:04:04;;;;;;;3.90;2.05;;;;;;;;;;5077907;28;20024;-82
2021/08/18 04:06:30;;;;;;;3.55;2.28;;;;;;;;;;5077834;28;20055;-82
2021/08/18 04:08:58;;;;;;;4.85;2.20;;;;;;;;;;5077740;28;20028;-78
2021/08/18 04:11:24;;;;;;;4.70;2.20;;;;;;;;;;5075906;28;20025;-78
2021/08/18 04:13:50;;;;;;;3.92;2.00;;;;;;;;;;5077895;28;20047;-78
2021/08/18 04:16:16;;;;;;;5.45;2.15;;;;;;;;;;5076734;28;20033;-78
2021/08/18 04:18:44;;;;;;;6.13;2.65;;;;;;;;;;5076417;28;20035;-78
2021/08/18 04:21:10;;;;;;;10.93;2.28;;;;;;;;;;5077533;28;20032;-78
2021/08/18 04:23:36;;;;;;;5.57;2.03;;;;;;;;;;5076568;28;20032;-78
2021/08/18 04:26:02;;;;;;;4.82;2.22;;;;;;;;;;5077570;28;20021;-79
2021/08/18 04:28:28;;;;;;;4.60;2.38;;;;;;;;;;5076192;28;20075;-78
2021/08/18 04:30:54;;;;;;;4.63;2.40;;;;;;;;;;5077467;28;20029;-78
2021/08/18 04:33:20;;;;;;;4.90;2.40;;;;;;;;;;5077344;28;20315;-78
2021/08/18 04:35:46;;;;;;;11.00;2.30;;;;;;;;;;5077349;28;20024;-78
2021/08/18 04:38:12;;;;;;;8.75;2.30;;;;;;;;;;5077455;28;20074;-78
2021/08/18 04:40:39;;;;;;;5.20;2.22;;;;;;;;;;5077162;28;20115;-78
2021/08/18 04:43:05;;;;;;;6.22;2.47;;;;;;;;;;5077326;28;20024;-78
2021/08/18 04:45:31;;;;;;;5.65;2.53;;;;;;;;;;5077278;28;20016;-78
2021/08/18 04:47:57;;;;;;;5.38;2.05;;;;;;;;;;5077180;28;20070;-78
2021/08/18 04:50:25;;;;;;;5.20;2.83;;;;;;;;;;5077112;28;20020;-78
2021/08/18 04:52:51;;;;;;;4.78;2.53;;;;;;;;;;5076903;28;20029;-78
2021/08/18 04:55:17;;;;;;;4.45;2.15;;;;;;;;;;5076989;28;20306;-78
2021/08/18 04:58:20;;;;;;;3.33;2.13;;;;;;;;;;5077125;28;20056;-78
2021/08/18 05:00:46;;;;;;;6.97;2.20;;;;;;;;;;5070706;28;20044;-78
2021/08/18 05:03:13;;;;;;;5.10;2.17;;;;;;;;;;5074840;28;20418;-78
2021/08/18 05:05:57;;;;;;;4.93;2.30;;;;;;;;;;5075135;28;20029;-78
2021/08/18 05:09:00;;;;;;;;;;;;;;;;;;;;;
2021/08/18 05:11:53;;;;;;;;;;;;;;;;;;;;;
2021/08/18 05:14:38;;;;;;;3.72;2.30;;;;;;;;;;5014264;28;19909;-78
2021/08/18 05:17:47;;;;;;;;;;;;;;;;;;;;;
2021/08/18 05:23:39;;;;;;;4.50;2.20;;;;;;;;;;4864780;29;20029;-78
2021/08/18 05:26:05;;;;;;;6.30;2.50;;;;;;;;;;4866277;29;20038;-78
2021/08/18 05:28:31;;;;;;;7.45;2.28;;;;;;;;;;4850609;29;20159;-78
2021/08/18 05:30:57;;;;;;;6.50;2.38;;;;;;;;;;4865977;29;20476;-78
2021/08/18 05:33:23;;;;;;;4.90;2.50;;;;;;;;;;4850664;29;20102;-78
2021/08/18 05:35:49;;;;;;;3.90;2.33;;;;;;;;;;4865889;29;20044;-78
2021/08/18 05:38:16;;;;;;;5.15;2.58;;;;;;;;;;4850714;29;20398;-78
2021/08/18 05:40:42;;;;;;;4.65;2.20;;;;;;;;;;4865939;29;20098;-78
2021/08/18 05:43:08;;;;;;;5.20;2.22;;;;;;;;;;4866184;29;20041;-78
2021/08/18 05:45:34;;;;;;;7.35;2.38;;;;;;;;;;4866103;29;20033;-78
2021/08/18 05:48:00;;;;;;;5.75;2.75;;;;;;;;;;4880899;29;20032;-78
2021/08/18 05:50:26;;;;;;;4.15;2.20;;;;;;;;;;4903258;29;20055;-78
2021/08/18 05:52:52;;;;;;;6.07;2.50;;;;;;;;;;4903137;29;20459;-78
2021/08/18 05:55:18;;;;;;;5.78;2.80;;;;;;;;;;4965384;28;20436;-78
2021/08/18 05:57:44;;;;;;;3.88;2.13;;;;;;;;;;5038461;28;20059;-78
2021/08/18 06:00:10;;;;;;;4.15;2.17;;;;;;;;;;5043152;28;20047;-79
2021/08/18 06:02:36;;;;;;;10.07;2.38;;;;;;;;;;5080113;28;20090;-78
2021/08/18 06:05:02;;;;;;;3.65;2.30;;;;;;;;;;5079974;28;20036;-78
2021/08/18 06:07:28;;;;;;;4.82;2.20;;;;;;;;;;5079290;28;20060;-78
2021/08/18 06:09:54;;;;;;;5.18;2.15;;;;;;;;;;5080055;28;20025;-78
2021/08/18 06:12:20;;;;;;;3.47;2.10;;;;;;;;;;5079874;28;20016;-78
2021/08/18 06:14:46;;;;;;;5.70;2.80;;;;;;;;;;5079182;28;20074;-78
2021/08/18 06:17:12;;;;;;;3.67;2.10;;;;;;;;;;5078928;28;20037;-78
2021/08/18 06:19:39;;;;;;;6.93;2.47;;;;;;;;;;5079768;28;20025;-78
2021/08/18 06:22:05;;;;;;;4.50;2.03;;;;;;;;;;5079588;28;20066;-78
2021/08/18 06:24:41;;;;;;;5.18;2.33;;;;;;;;;;5079791;28;20034;-78
2021/08/18 06:27:07;;;;;;;6.55;2.58;;;;;;;;;;5079760;28;20048;-78
2021/08/18 06:29:34;;;;;;;4.50;2.25;;;;;;;;;;5079843;28;20486;-78
2021/08/18 06:32:01;;;;;;;4.22;2.05;;;;;;;;;;5079506;28;20060;-79
2021/08/18 06:34:27;;;;;;;8.25;2.72;;;;;;;;;;5078735;28;20029;-78
2021/08/18 06:36:53;;;;;;;9.18;3.78;;;;;;;;;;5078666;28;20063;-78
2021/08/18 06:39:19;;;;;;;6.47;3.42;;;;;;;;;;5078603;28;20037;-78
2021/08/18 06:41:45;;;;;;;7.10;3.90;;;;;;;;;;5079409;28;20032;-78
2021/08/18 06:44:11;;;;;;;5.15;2.45;;;;;;;;;;5079273;28;20461;-78
2021/08/18 06:46:37;;;;;;;9.15;4.72;;;;;;;;;;5079261;28;20295;-78
2021/08/18 06:49:04;;;;;;;7.40;3.20;;;;;;;;;;5079358;28;20326;-78
2021/08/18 06:51:30;;;;;;;6.78;2.75;;;;;;;;;;5078142;28;20028;-78
2021/08/18 06:53:56;;;;;;;3.88;2.50;;;;;;;;;;5079147;28;20020;-78
2021/08/18 06:56:22;;;;;;;9.23;3.45;;;;;;;;;;5079185;28;20056;-78
2021/08/18 06:58:48;;;;;;;4.90;2.60;;;;;;;;;;5078693;28;20036;-78
2021/08/18 07:01:14;;;;;;;6.55;2.60;;;;;;;;;;5077865;28;20047;-78
2021/08/18 07:03:40;;;;;;;7.88;2.30;;;;;;;;;;5079030;28;20016;-78
2021/08/18 07:06:06;;;;;;;2.85;2.20;;;;;;;;;;5078805;28;20407;-78
2021/08/18 07:08:32;;;;;;;5.13;2.13;;;;;;;;;;5079048;28;20036;-78
2021/08/18 07:10:58;;;;;;;3.80;2.40;;;;;;;;;;5078045;28;20043;-78
2021/08/18 07:13:24;;;;;;;3.22;1.98;;;;;;;;;;5077987;28;20036;-78
2021/08/18 07:15:50;;;;;;;3.33;2.00;;;;;;;;;;5077659;28;20032;-78
2021/08/18 07:18:16;;;;;;;3.47;2.13;;;;;;;;;;5078361;28;20028;-78
2021/08/18 07:20:42;;;;;;;5.82;2.20;;;;;;;;;;5077728;28;20427;-78
2021/08/18 07:23:08;;;;;;;5.22;2.50;;;;;;;;;;5077575;28;20033;-78
2021/08/18 07:25:34;;;;;;;6.35;1.90;;;;;;;;;;5078438;28;20020;-78
2021/08/18 07:28:00;;;;;;;3.80;1.88;;;;;;;;;;5077433;28;20017;-78
2021/08/18 07:30:26;;;;;;;6.57;2.13;;;;;;;;;;5078444;28;20028;-78
2021/08/18 07:32:52;;;;;;;8.73;2.50;;;;;;;;;;5078280;28;20029;-78
2021/08/18 07:35:19;;;;;;;6.65;2.55;;;;;;;;;;5078422;28;20029;-78
2021/08/18 07:37:45;;;;;;;7.53;2.35;;;;;;;;;;5077513;28;20461;-78
2021/08/18 07:40:11;;;;;;;9.05;2.85;;;;;;;;;;5077207;28;20111;-77
2021/08/18 07:42:37;;;;;;;8.70;2.80;;;;;;;;;;5078236;28;20024;-78
2021/08/18 07:45:03;;;;;;;3.13;2.15;;;;;;;;;;5078147;28;20437;-78
2021/08/18 07:47:29;;;;;;;5.70;2.78;;;;;;;;;;5077062;28;20028;-78
2021/08/18 07:49:55;;;;;;;5.07;2.13;;;;;;;;;;5078335;28;20023;-78
2021/08/18 07:52:21;;;;;;;6.20;2.20;;;;;;;;;;5077965;28;20024;-78
2021/08/18 07:54:48;;;;;;;7.03;2.40;;;;;;;;;;5078046;28;20029;-77
2021/08/18 07:57:14;;;;;;;7.30;2.30;;;;;;;;;;5078018;28;20060;-77
2021/08/18 07:59:40;;;;;;;8.63;2.00;;;;;;;;;;5077760;28;20052;-78
2021/08/18 08:02:06;;;;;;;3.60;2.00;;;;;;;;;;5077522;28;20033;-77
2021/08/18 08:04:32;;;;;;;3.35;2.00;;;;;;;;;;5077900;28;20099;-78
2021/08/18 08:06:59;;;;;;;5.38;1.80;;;;;;;;;;5077729;28;20032;-78
2021/08/18 08:09:25;;;;;;;4.60;1.80;;;;;;;;;;5076777;28;20021;-78
2021/08/18 08:11:51;;;;;;;3.85;1.55;;;;;;;;;;5077559;28;20324;-78
2021/08/18 08:14:17;;;;;;;3.92;1.58;;;;;;;;;;5077713;28;20051;-78
2021/08/18 08:16:43;;;;;;;4.05;1.98;;;;;;;;;;5076689;28;20036;-78
2021/08/18 08:19:09;;;;;;;5.80;1.80;;;;;;;;;;5076459;28;20060;-78
2021/08/18 08:21:35;;;;;;;9.93;2.58;;;;;;;;;;5076446;28;20051;-78
2021/08/18 08:24:01;;;;;;;3.58;2.03;;;;;;;;;;5077496;28;20021;-78
2021/08/18 08:26:27;;;;;;;6.18;1.80;;;;;;;;;;5077102;28;20021;-78
2021/08/18 08:28:53;;;;;;;3.83;1.73;;;;;;;;;;5077461;28;20024;-78
2021/08/18 08:31:19;;;;;;;2.75;1.88;;;;;;;;;;5077443;28;20029;-78
2021/08/18 08:33:45;;;;;;;6.88;1.80;;;;;;;;;;5077556;28;20051;-78
2021/08/18 08:36:12;;;;;;;6.80;2.00;;;;;;;;;;5077435;28;20023;-79
2021/08/18 08:38:38;;;;;;;6.95;2.03;;;;;;;;;;5077251;28;20403;-78
2021/08/18 08:41:06;;;;;;;5.57;1.70;;;;;;;;;;5077307;28;20094;-78
2021/08/18 08:43:32;;;;;;;6.22;1.70;;;;;;;;;;5077327;28;20046;-78
2021/08/18 08:45:58;;;;;;;7.50;1.98;;;;;;;;;;5077172;28;20021;-78
2021/08/18 08:48:24;;;;;;;4.13;1.70;;;;;;;;;;5077090;28;20048;-78
2021/08/18 08:50:50;;;;;;;4.00;1.60;;;;;;;;;;5077039;28;20028;-79
2021/08/18 08:53:17;;;;;;;8.13;1.80;;;;;;;;;;5076816;28;20028;-78
2021/08/18 08:55:43;;;;;;;5.35;2.13;;;;;;;;;;5077218;28;20035;-79
2021/08/18 08:58:09;;;;;;;6.50;2.00;;;;;;;;;;5076422;28;20066;-78
2021/08/18 09:00:35;;;;;;;5.95;1.90;;;;;;;;;;5076360;28;20462;-78
2021/08/18 09:03:11;;;;;;;3.85;1.52;;;;;;;;;;5076867;28;20038;-78
2021/08/18 09:05:37;;;;;;;10.27;1.98;;;;;;;;;;5077000;28;20023;-78
2021/08/18 09:08:03;;;;;;;6.80;1.73;;;;;;;;;;5076827;28;20024;-78
2021/08/18 09:10:29;;;;;;;5.30;1.70;;;;;;;;;;5077092;28;20115;-78
2021/08/18 09:13:09;;;;;;;3.42;1.95;;;;;;;;;;5076894;28;20035;-79
2021/08/18 09:15:35;;;;;;;6.40;1.85;;;;;;;;;;5076992;28;20029;-78
2021/08/18 09:18:01;;;;;;;8.93;1.73;;;;;;;;;;5076533;28;20053;-79
2021/08/18 09:20:29;;;;;;;7.10;1.70;;;;;;;;;;5076581;28;20020;-78
2021/08/18 09:23:04;;;;;;;4.10;1.45;;;;;;;;;;5076872;28;20403;-78
2021/08/18 09:25:35;;;;;;;5.60;1.70;;;;;;;;;;5076677;28;20021;-78
2021/08/18 09:28:01;;;;;;;6.90;1.60;;;;;;;;;;5076579;28;20112;-78
2021/08/18 09:30:36;;;;;;;8.35;1.98;;;;;;;;;;5076922;28;20028;-78
2021/08/18 09:33:08;;;;;;;6.50;1.80;;;;;;;;;;5076174;28;20036;-78
2021/08/18 09:35:34;;;;;;;4.25;1.65;;;;;;;;;;5077301;28;20100;-79
2021/08/18 09:38:04;;;;;;;3.08;2.00;;;;;;;;;;5076171;28;20036;-78
2021/08/18 09:40:32;;;;;;;3.72;1.52;;;;;;;;;;5075999;28;20021;-78
2021/08/18 09:43:09;;;;;;;3.75;2.00;;;;;;;;;;5076932;28;20020;-78
2021/08/18 09:45:38;;;;;;;3.53;2.00;;;;;;;;;;5076688;28;20063;-78
2021/08/18 09:48:12;;;;;;;6.57;2.33;;;;;;;;;;5076658;28;20339;-78
2021/08/18 09:50:41;;;;;;;6.78;2.00;;;;;;;;;;5076470;28;20442;-78
2021/08/18 09:53:08;;;;;;;3.85;2.08;;;;;;;;;;5076488;28;20032;-78
2021/08/18 09:55:34;;;;;;;5.25;2.38;;;;;;;;;;5075712;28;20032;-78
2021/08/18 09:58:00;;;;;;;3.95;1.85;;;;;;;;;;5075446;28;20074;-78
2021/08/18 10:00:26;;;;;;;8.90;2.47;;;;;;;;;;5076126;28;20068;-78
2021/08/18 10:02:53;;;;;;;3.38;1.95;;;;;;;;;;5076924;28;20020;-78
2021/08/18 10:05:19;;;;;;;5.07;2.40;;;;;;;;;;5076520;28;20017;-78
2021/08/18 10:07:46;;;;;;;5.50;2.03;;;;;;;;;;5076682;28;20103;-78
2021/08/18 10:10:12;;;;;;;6.22;2.25;;;;;;;;;;5078215;28;20024;-79
2021/08/18 10:12:38;;;;;;;7.45;2.40;;;;;;;;;;5079041;28;20021;-78
2021/08/18 10:15:05;;;;;;;6.03;2.70;;;;;;;;;;5078958;28;20036;-79
2021/08/18 10:17:32;;;;;;;4.85;2.25;;;;;;;;;;5078886;28;20032;-78
2021/08/18 10:19:58;;;;;;;6.10;2.70;;;;;;;;;;5078902;28;20039;-78
2021/08/18 10:22:26;;;;;;;3.70;2.28;;;;;;;;;;5079691;28;20425;-78
2021/08/18 10:24:52;;;;;;;5.45;2.58;;;;;;;;;;5079741;28;20103;-79
2021/08/18 10:27:38;;;;;;;3.65;2.20;;;;;;;;;;5079951;28;20028;-79
2021/08/18 10:30:30;;;;;;;4.28;2.40;;;;;;;;;;5079991;28;20020;-79
2021/08/18 10:32:57;;;;;;;4.38;1.95;;;;;;;;;;5079488;28;20043;-79
2021/08/18 10:35:35;;;;;;;6.57;2.40;;;;;;;;;;5079455;28;20020;-78
2021/08/18 10:38:19;;;;;;;5.43;2.28;;;;;;;;;;5078508;28;20025;-79
2021/08/18 10:40:45;;;;;;;7.05;1.92;;;;;;;;;;5079414;28;20164;-78
2021/08/18 10:43:31;;;;;;;4.93;2.17;;;;;;;;;;5079568;28;20098;-78
2021/08/18 10:45:57;;;;;;;4.13;2.17;;;;;;;;;;5078377;28;20071;-79
2021/08/18 10:48:52;;;;;;;3.63;1.70;;;;;;;;;;5079405;28;20031;-79
2021/08/18 10:51:37;;;;;;;3.35;1.70;;;;;;;;;;5079085;28;20061;-78
2021/08/18 10:54:22;;;;;;;3.95;2.17;;;;;;;;;;5079061;28;20032;-79
2021/08/18 10:56:55;;;;;;;4.15;2.00;;;;;;;;;;5079386;28;20096;-79
2021/08/18 10:59:37;;;;;;;4.22;2.00;;;;;;;;;;5077796;28;20335;-79
2021/08/18 11:02:04;;;;;;;5.05;2.25;;;;;;;;;;5078127;28;20040;-78
2021/08/18 11:04:50;;;;;;;6.55;2.25;;;;;;;;;;5079072;28;20029;-78
2021/08/18 11:07:17;;;;;;;4.50;1.85;;;;;;;;;;5078841;28;20027;-78
2021/08/18 11:09:47;;;;;;;7.45;2.20;;;;;;;;;;5079123;28;20058;-78
2021/08/18 11:12:31;;;;;;;4.30;1.80;;;;;;;;;;5079099;28;20028;-79
2021/08/18 11:14:57;;;;;;;3.78;1.67;;;;;;;;;;5079111;28;20108;-79
2021/08/18 11:17:24;;;;;;;5.40;2.20;;;;;;;;;;5079054;28;20029;-78
2021/08/18 11:19:52;;;;;;;12.20;5.13;;;;;;;;;;5078003;28;20086;-78
2021/08/18 11:22:19;;;;;;;4.85;2.47;;;;;;;;;;5078684;28;20028;-78
2021/08/18 11:24:45;;;;;;;12.18;8.13;;;;;;;;;;5078623;28;20020;-78
2021/08/18 11:27:11;;;;;;;11.88;7.30;;;;;;;;;;5078585;28;20036;-78
2021/08/18 11:29:38;;;;;;;19.25;14.15;;;;;;;;;;5078877;28;20032;-78
2021/08/18 11:32:04;;;;;;;24.35;15.20;;;;;;;;;;5078481;28;20032;-78
2021/08/18 11:34:37;;;;;;;9.13;5.53;;;;;;;;;;5077684;28;20134;-78
2021/08/18 11:37:08;;;;;;;8.85;4.55;;;;;;;;;;5077570;28;20068;-78
2021/08/18 11:39:38;;;;;;;5.55;2.20;;;;;;;;;;5078556;28;20028;-78
2021/08/18 11:42:10;;;;;;;9.10;2.67;;;;;;;;;;5078204;28;20411;-78
2021/08/18 11:44:38;;;;;;;6.53;2.60;;;;;;;;;;5078415;28;20402;-78
2021/08/18 11:47:06;;;;;;;6.07;2.38;;;;;;;;;;5078191;28;20021;-78
2021/08/18 11:49:33;;;;;;;7.45;2.42;;;;;;;;;;5078311;28;20028;-78
2021/08/18 11:51:59;;;;;;;6.18;2.42;;;;;;;;;;5078219;28;20047;-78
2021/08/18 11:54:26;;;;;;;4.93;2.40;;;;;;;;;;5078104;28;20021;-78
2021/08/18 11:57:05;;;;;;;4.38;2.10;;;;;;;;;;5078171;28;20028;-78
2021/08/18 11:59:31;;;;;;;3.50;2.22;;;;;;;;;;5077612;28;20059;-79
2021/08/18 12:01:58;;;;;;;8.27;2.28;;;;;;;;;;5076592;28;20025;-78
2021/08/18 12:04:25;;;;;;;4.50;2.20;;;;;;;;;;5078097;28;20051;-78
2021/08/18 12:07:07;;;;;;;5.32;2.72;;;;;;;;;;5077865;28;20025;-78
2021/08/18 12:09:33;;;;;;;8.65;2.78;;;;;;;;;;5077879;28;20028;-78
2021/08/18 12:12:26;;;;;;;7.50;2.75;;;;;;;;;;5077585;28;20032;-78
2021/08/18 12:14:54;;;;;;;6.55;2.67;;;;;;;;;;5077487;28;20152;-78
2021/08/18 12:17:20;;;;;;;7.20;2.30;;;;;;;;;;5077657;28;20036;-78
2021/08/18 12:19:47;;;;;;;11.80;2.90;;;;;;;;;;5077613;28;20020;-78
2021/08/18 12:22:16;;;;;;;4.68;2.28;;;;;;;;;;5077371;28;20073;-77
2021/08/18 12:24:44;;;;;;;4.55;2.55;;;;;;;;;;5077330;28;20055;-78
2021/08/18 12:27:14;;;;;;;4.00;2.45;;;;;;;;;;5076670;28;20081;-77
2021/08/18 12:29:40;;;;;;;3.58;2.15;;;;;;;;;;5076410;28;20025;-78
2021/08/18 12:32:08;;;;;;;3.90;2.20;;;;;;;;;;5076772;28;20411;-77
2021/08/18 12:34:40;;;;;;;4.75;2.10;;;;;;;;;;5077268;28;20028;-77
2021/08/18 12:37:10;;;;;;;4.30;2.00;;;;;;;;;;5077044;28;20403;-78
2021/08/18 12:39:40;;;;;;;4.00;2.20;;;;;;;;;;5077446;28;20029;-78
2021/08/18 12:42:06;;;;;;;4.55;1.90;;;;;;;;;;5076110;28;20028;-77
2021/08/18 12:44:34;;;;;;;4.90;2.20;;;;;;;;;;5077183;28;20025;-77
2021/08/18 12:47:05;;;;;;;5.32;2.53;;;;;;;;;;5076191;28;20465;-78
2021/08/18 12:49:31;;;;;;;10.40;2.90;;;;;;;;;;5077065;28;20044;-77
2021/08/18 12:51:59;;;;;;;4.60;2.08;;;;;;;;;;5076994;28;20020;-77
2021/08/18 12:54:25;;;;;;;4.03;2.05;;;;;;;;;;5076988;28;20350;-78
2021/08/18 12:56:51;;;;;;;6.55;2.25;;;;;;;;;;5077040;28;20074;-78
2021/08/18 12:59:17;;;;;;;5.85;2.30;;;;;;;;;;5075979;28;20358;-77
2021/08/18 13:01:43;;;;;;;5.30;2.10;;;;;;;;;;5076871;28;20031;-78
2021/08/18 13:04:11;;;;;;;6.32;2.08;;;;;;;;;;5076978;28;20052;-77
2021/08/18 13:06:37;;;;;;;4.90;2.10;;;;;;;;;;5076753;28;20108;-77
2021/08/18 13:09:04;;;;;;;4.13;1.80;;;;;;;;;;5076930;28;20099;-77
2021/08/18 13:11:31;;;;;;;4.45;2.45;;;;;;;;;;5075820;28;20031;-78
2021/08/18 13:13:58;;;;;;;5.35;2.20;;;;;;;;;;5076988;28;20025;-77
2021/08/18 13:16:24;;;;;;;5.05;2.38;;;;;;;;;;5075875;28;20055;-77
2021/08/18 13:18:50;;;;;;;9.20;2.08;;;;;;;;;;5077033;28;20078;-77
2021/08/18 13:21:17;;;;;;;7.90;2.13;;;;;;;;;;5076668;28;20031;-78
2021/08/18 13:23:43;;;;;;;8.88;2.15;;;;;;;;;;5076695;28;20028;-78
2021/08/18 13:26:09;;;;;;;7.57;2.22;;;;;;;;;;5076754;28;20111;-77
2021/08/18 13:28:35;;;;;;;4.20;2.00;;;;;;;;;;5076660;28;20067;-78
2021/08/18 13:31:01;;;;;;;4.53;1.75;;;;;;;;;;5076716;28;20438;-77
2021/08/18 13:33:27;;;;;;;7.85;2.38;;;;;;;;;;5076701;28;20497;-77
2021/08/18 13:35:54;;;;;;;6.35;2.17;;;;;;;;;;5076270;28;20027;-77
2021/08/18 13:38:20;;;;;;;7.70;2.63;;;;;;;;;;5076614;28;20035;-77
2021/08/18 13:40:46;;;;;;;6.90;2.10;;;;;;;;;;5075529;28;20055;-77
2021/08/18 13:43:12;;;;;;;6.72;2.55;;;;;;;;;;5077149;28;20056;-78
2021/08/18 13:45:38;;;;;;;10.32;2.30;;;;;;;;;;5080447;28;20066;-77
2021/08/18 13:48:05;;;;;;;6.50;2.50;;;;;;;;;;5080444;28;20048;-78
2021/08/18 13:50:31;;;;;;;6.55;2.67;;;;;;;;;;5080244;28;20407;-78
2021/08/18 13:52:57;;;;;;;6.15;2.90;;;;;;;;;;5080589;28;20052;-78
2021/08/18 13:55:23;;;;;;;7.53;2.70;;;;;;;;;;5080489;28;20044;-78
2021/08/18 13:57:49;;;;;;;9.73;3.00;;;;;;;;;;5080187;28;20063;-78
2021/08/18 14:00:16;;;;;;;6.63;2.58;;;;;;;;;;5079945;28;20048;-78
2021/08/18 14:02:42;;;;;;;7.10;2.80;;;;;;;;;;5080235;28;20028;-78
2021/08/18 14:05:09;;;;;;;3.42;2.47;;;;;;;;;;5080115;28;20020;-78
2021/08/18 14:07:35;;;;;;;7.05;2.58;;;;;;;;;;5078849;28;20039;-78
2021/08/18 14:10:03;;;;;;;10.88;2.70;;;;;;;;;;5078976;28;20020;-78
2021/08/18 14:12:30;;;;;;;7.80;3.30;;;;;;;;;;5080085;28;20091;-78
2021/08/18 14:14:56;;;;;;;5.45;2.95;;;;;;;;;;5080013;28;20024;-78
2021/08/18 14:17:23;;;;;;;6.28;3.03;;;;;;;;;;5079838;28;20025;-78
2021/08/18 14:19:49;;;;;;;4.90;2.90;;;;;;;;;;5079981;28;20028;-78
2021/08/18 14:22:16;;;;;;;4.63;2.67;;;;;;;;;;5079361;28;20111;-78
2021/08/18 14:24:42;;;;;;;4.72;2.40;;;;;;;;;;5079949;28;20013;-77
2021/08/18 14:27:08;;;;;;;6.20;3.33;;;;;;;;;;5079719;28;20354;-78
2021/08/18 14:29:34;;;;;;;6.85;3.53;;;;;;;;;;5078619;28;20033;-78
2021/08/18 14:32:00;;;;;;;5.50;3.20;;;;;;;;;;5079614;28;20036;-78
2021/08/18 14:34:28;;;;;;;5.22;2.85;;;;;;;;;;5078752;28;20044;-78
2021/08/18 14:36:54;;;;;;;7.22;3.53;;;;;;;;;;5079408;28;20032;-77
2021/08/18 14:39:20;;;;;;;9.88;4.82;;;;;;;;;;5079488;28;20028;-77
2021/08/18 14:41:46;;;;;;;6.18;3.58;;;;;;;;;;5079472;28;20028;-77
2021/08/18 14:44:12;;;;;;;6.35;3.17;;;;;;;;;;5079473;28;20016;-78
2021/08/18 14:46:39;;;;;;;12.63;4.30;;;;;;;;;;5079388;28;20311;-77
2021/08/18 14:49:05;;;;;;;5.55;3.55;;;;;;;;;;5079267;28;20021;-78
2021/08/18 14:51:31;;;;;;;6.10;3.38;;;;;;;;;;5079050;28;20056;-78
2021/08/18 14:53:57;;;;;;;6.28;3.55;;;;;;;;;;5079207;28;20027;-78